createdAt,value
2022-09-11T00:00:53.095Z,18.95
2022-09-11T00:01:57.427Z,17.60
2022-09-11T00:02:59.418Z,18.27
2022-09-11T00:04:03.597Z,20.60
2022-09-11T00:05:06.305Z,19.85
2022-09-11T00:06:11.418Z,19.38
2022-09-11T00:07:13.297Z,19.60
2022-09-11T00:08:18.681Z,20.30
2022-09-11T00:09:20.583Z,21.10
2022-09-11T00:10:24.323Z,20.50
2022-09-11T00:11:28.738Z,18.23
2022-09-11T00:12:31.637Z,23.23
2022-09-11T00:13:34.049Z,28.80
2022-09-11T00:14:36.994Z,27.08
2022-09-11T00:15:39.490Z,19.70
2022-09-11T00:16:45.176Z,17.70
2022-09-11T00:17:48.525Z,21.40
2022-09-11T00:18:51.862Z,18.42
2022-09-11T00:19:53.811Z,18.75
2022-09-11T00:20:58.954Z,19.60
2022-09-11T00:22:00.874Z,15.40
2022-09-11T00:23:05.293Z,18.02
2022-09-11T00:24:09.901Z,17.65
2022-09-11T00:25:12.771Z,19.67
2022-09-11T00:26:14.888Z,20.30
2022-09-11T00:27:17.777Z,21.92
2022-09-11T00:28:22.000Z,17.95
2022-09-11T00:29:24.921Z,15.82
2022-09-11T00:30:27.575Z,16.20
2022-09-11T00:31:32.400Z,26.83
2022-09-11T00:32:34.644Z,56.85
2022-09-11T00:33:39.036Z,90.18
2022-09-11T00:34:41.231Z,50.15
2022-09-11T00:35:44.893Z,84.70
2022-09-11T00:36:48.257Z,35.03
2022-09-11T00:37:51.693Z,39.63
2022-09-11T00:38:54.079Z,20.08
2022-09-11T00:39:57.131Z,23.30
2022-09-11T00:41:01.609Z,16.20
2022-09-11T00:42:05.624Z,18.65
2022-09-11T00:43:09.992Z,15.85
2022-09-11T00:44:46.841Z,16.00
2022-09-11T00:45:54.766Z,17.67
2022-09-11T00:47:01.028Z,20.85
2022-09-11T00:48:04.035Z,18.75
2022-09-11T00:49:21.632Z,16.10
2022-09-11T00:50:27.160Z,13.43
2022-09-11T00:51:34.566Z,18.38
2022-09-11T00:52:40.883Z,18.85
2022-09-11T00:53:43.847Z,14.55
2022-09-11T00:54:49.648Z,15.30
2022-09-11T00:55:58.522Z,16.00
2022-09-11T00:57:04.194Z,13.07
2022-09-11T00:58:10.942Z,12.32
2022-09-11T00:59:14.380Z,15.18
2022-09-11T01:00:17.450Z,15.82
2022-09-11T01:01:19.377Z,11.85
2022-09-11T01:02:27.425Z,13.48
2022-09-11T01:03:32.093Z,17.50
2022-09-11T01:04:37.865Z,12.55
2022-09-11T01:05:43.371Z,13.57
2022-09-11T01:06:46.793Z,17.92
2022-09-11T01:07:50.802Z,21.25
2022-09-11T01:08:53.689Z,18.77
2022-09-11T01:09:56.318Z,18.58
2022-09-11T01:11:12.865Z,21.40
2022-09-11T01:12:23.666Z,17.45
2022-09-11T01:13:34.227Z,15.57
2022-09-11T01:14:47.804Z,15.05
2022-09-11T01:16:04.187Z,13.80
2022-09-11T01:17:21.167Z,20.20
2022-09-11T01:18:29.798Z,12.05
2022-09-11T01:19:47.208Z,15.80
2022-09-11T01:21:09.686Z,19.00
2022-09-11T01:22:31.230Z,12.13
2022-09-11T01:23:55.059Z,15.48
2022-09-11T01:25:09.038Z,17.75
2022-09-11T01:26:34.873Z,18.67
2022-09-11T01:27:47.276Z,15.70
2022-09-11T01:28:54.065Z,13.15
2022-09-11T01:30:00.686Z,13.60
2022-09-11T01:31:11.211Z,12.50
2022-09-11T01:32:19.329Z,11.45
2022-09-11T01:33:28.791Z,14.50
2022-09-11T01:34:37.450Z,12.40
2022-09-11T01:35:53.401Z,13.68
2022-09-11T01:37:01.635Z,13.18
2022-09-11T01:38:10.015Z,15.73
2022-09-11T01:39:13.810Z,15.57
2022-09-11T01:40:23.576Z,11.52
2022-09-11T01:41:29.990Z,12.52
2022-09-11T01:42:37.038Z,13.98
2022-09-11T01:43:44.284Z,17.60
2022-09-11T01:44:51.214Z,14.80
2022-09-11T01:45:54.755Z,17.38
2022-09-11T01:46:59.812Z,13.50
2022-09-11T01:48:02.367Z,19.10
2022-09-11T01:49:11.467Z,12.52
2022-09-11T01:50:18.000Z,19.63
2022-09-11T01:51:27.014Z,13.13
2022-09-11T01:52:33.951Z,14.48
2022-09-11T01:53:41.620Z,17.67
2022-09-11T01:54:47.379Z,14.65
2022-09-11T01:55:55.481Z,16.33
2022-09-11T01:57:04.193Z,14.85
2022-09-11T01:58:09.861Z,13.10
2022-09-11T01:59:21.731Z,15.88
2022-09-11T02:00:27.305Z,13.32
2022-09-11T02:01:32.743Z,15.43
2022-09-11T02:02:39.604Z,15.80
2022-09-11T02:03:47.461Z,14.00
2022-09-11T02:04:53.829Z,15.13
2022-09-11T02:05:59.884Z,14.30
2022-09-11T02:07:08.530Z,15.85
2022-09-11T02:08:16.485Z,15.73
2022-09-11T02:09:24.610Z,16.90
2022-09-11T02:10:32.941Z,13.80
2022-09-11T02:11:40.651Z,15.02
2022-09-11T02:12:47.643Z,17.38
2022-09-11T02:13:58.241Z,15.65
2022-09-11T02:15:01.581Z,15.20
2022-09-11T02:16:15.487Z,14.75
2022-09-11T02:17:24.615Z,13.00
2022-09-11T02:18:41.370Z,17.38
2022-09-11T02:19:44.044Z,15.02
2022-09-11T02:20:47.647Z,17.25
2022-09-11T02:21:50.969Z,15.13
2022-09-11T02:22:53.990Z,17.27
2022-09-11T02:23:59.017Z,17.17
2022-09-11T02:25:02.438Z,15.90
2022-09-11T02:26:06.100Z,15.75
2022-09-11T02:27:12.922Z,16.90
2022-09-11T02:28:14.998Z,15.02
2022-09-11T02:29:17.857Z,17.45
2022-09-11T02:30:21.232Z,15.18
2022-09-11T02:31:24.807Z,14.35
2022-09-11T02:32:27.814Z,14.20
2022-09-11T02:33:33.853Z,13.98
2022-09-11T02:34:39.423Z,16.58
2022-09-11T02:35:48.189Z,16.63
2022-09-11T02:37:15.844Z,16.55
2022-09-11T02:38:25.870Z,15.98
2022-09-11T02:40:00.307Z,16.25
2022-09-11T02:41:10.906Z,14.82
2022-09-11T02:42:27.154Z,14.18
2022-09-11T02:43:41.117Z,18.27
2022-09-11T02:44:49.821Z,16.52
2022-09-11T02:46:10.637Z,14.55
2022-09-11T02:47:23.657Z,12.18
2022-09-11T02:48:39.867Z,16.48
2022-09-11T02:49:52.376Z,15.23
2022-09-11T02:51:00.559Z,16.75
2022-09-11T02:52:09.689Z,14.30
2022-09-11T02:53:21.798Z,14.15
2022-09-11T02:54:37.421Z,13.88
2022-09-11T02:55:50.552Z,17.00
2022-09-11T02:57:02.257Z,15.73
2022-09-11T02:58:13.451Z,15.55
2022-09-11T02:59:19.089Z,18.42
2022-09-11T03:00:22.344Z,16.67
2022-09-11T03:01:25.932Z,16.02
2022-09-11T03:02:30.946Z,15.07
2022-09-11T03:03:38.532Z,17.90
2022-09-11T03:04:41.918Z,17.55
2022-09-11T03:05:43.906Z,18.95
2022-09-11T03:06:49.272Z,20.38
2022-09-11T03:07:52.417Z,18.55
2022-09-11T03:08:55.754Z,17.63
2022-09-11T03:09:58.671Z,22.45
2022-09-11T03:11:00.736Z,21.33
2022-09-11T03:12:05.494Z,17.98
2022-09-11T03:13:10.950Z,19.70
2022-09-11T03:14:14.269Z,18.77
2022-09-11T03:15:17.548Z,20.20
2022-09-11T03:16:20.759Z,18.42
2022-09-11T03:17:25.381Z,20.27
2022-09-11T03:18:28.478Z,19.58
2022-09-11T03:19:30.746Z,20.67
2022-09-11T03:20:34.199Z,19.02
2022-09-11T03:21:37.369Z,20.05
2022-09-11T03:22:40.699Z,20.83
2022-09-11T03:23:43.474Z,21.10
2022-09-11T03:24:46.421Z,22.02
2022-09-11T03:25:48.424Z,20.65
2022-09-11T03:26:51.274Z,19.85
2022-09-11T03:27:54.408Z,19.13
2022-09-11T03:28:57.504Z,18.20
2022-09-11T03:29:59.761Z,18.13
2022-09-11T03:31:02.782Z,20.85
2022-09-11T03:32:05.307Z,21.05
2022-09-11T03:33:10.399Z,19.20
2022-09-11T03:34:12.740Z,20.58
2022-09-11T03:35:16.672Z,23.30
2022-09-11T03:36:20.235Z,19.08
2022-09-11T03:37:22.205Z,19.05
2022-09-11T03:38:25.229Z,19.10
2022-09-11T03:39:28.296Z,19.90
2022-09-11T03:40:34.272Z,23.42
2022-09-11T03:41:37.772Z,22.70
2022-09-11T03:42:41.488Z,23.10
2022-09-11T03:43:43.630Z,22.25
2022-09-11T03:44:46.691Z,25.20
2022-09-11T03:45:49.887Z,26.63
2022-09-11T03:46:53.665Z,23.33
2022-09-11T03:47:55.733Z,25.63
2022-09-11T03:49:00.498Z,24.85
2022-09-11T03:50:02.464Z,23.23
2022-09-11T03:51:06.425Z,27.13
2022-09-11T03:52:08.389Z,23.70
2022-09-11T03:53:11.672Z,24.52
2022-09-11T03:54:16.041Z,29.45
2022-09-11T03:55:19.345Z,29.48
2022-09-11T03:56:21.359Z,30.95
2022-09-11T03:57:25.110Z,27.35
2022-09-11T03:58:28.318Z,28.75
2022-09-11T03:59:31.249Z,30.77
2022-09-11T04:00:33.777Z,29.77
2022-09-11T04:01:37.094Z,27.52
2022-09-11T04:02:39.065Z,27.83
2022-09-11T04:03:43.073Z,26.50
2022-09-11T04:04:52.180Z,29.17
2022-09-11T04:05:59.947Z,29.23
2022-09-11T04:07:01.906Z,28.95
2022-09-11T04:08:05.227Z,26.10
2022-09-11T04:09:07.254Z,30.30
2022-09-11T04:10:11.682Z,25.90
2022-09-11T04:11:14.266Z,24.85
2022-09-11T04:12:17.262Z,26.45
2022-09-11T04:13:20.847Z,27.45
2022-09-11T04:14:23.773Z,31.52
2022-09-11T04:15:28.407Z,25.35
2022-09-11T04:16:32.915Z,26.52
2022-09-11T04:17:35.604Z,23.25
2022-09-11T04:18:40.961Z,25.25
2022-09-11T04:19:42.942Z,23.80
2022-09-11T04:20:47.685Z,27.13
2022-09-11T04:21:49.720Z,25.00
2022-09-11T04:22:52.657Z,26.20
2022-09-11T04:23:56.517Z,22.65
2022-09-11T04:25:02.061Z,26.13
2022-09-11T04:26:15.760Z,26.00
2022-09-11T04:27:20.654Z,24.17
2022-09-11T04:28:23.655Z,23.42
2022-09-11T04:29:26.803Z,25.25
2022-09-11T04:30:30.942Z,28.70
2022-09-11T04:31:36.267Z,24.23
2022-09-11T04:32:38.667Z,30.00
2022-09-11T04:33:41.739Z,24.95
2022-09-11T04:34:43.942Z,21.35
2022-09-11T04:35:48.166Z,24.10
2022-09-11T04:36:50.154Z,24.92
2022-09-11T04:37:56.355Z,24.05
2022-09-11T04:39:00.169Z,24.88
2022-09-11T04:40:04.013Z,23.67
2022-09-11T04:41:07.465Z,21.25
2022-09-11T04:42:10.782Z,23.58
2022-09-11T04:43:13.674Z,25.30
2022-09-11T04:44:16.617Z,22.50
2022-09-11T04:45:19.427Z,22.48
2022-09-11T04:46:24.230Z,19.92
2022-09-11T04:47:26.319Z,23.38
2022-09-11T04:48:29.575Z,19.95
2022-09-11T04:49:33.027Z,20.60
2022-09-11T04:50:35.965Z,20.75
2022-09-11T04:51:54.864Z,23.85
2022-09-11T04:53:00.413Z,24.15
2022-09-11T04:54:03.675Z,19.77
2022-09-11T04:55:11.597Z,22.08
2022-09-11T04:56:13.860Z,17.67
2022-09-11T04:57:21.707Z,20.20
2022-09-11T04:58:23.809Z,18.80
2022-09-11T04:59:27.586Z,20.73
2022-09-11T05:00:41.021Z,17.42
2022-09-11T05:01:44.772Z,19.70
2022-09-11T05:02:47.708Z,23.65
2022-09-11T05:03:50.746Z,19.83
2022-09-11T05:04:52.702Z,23.35
2022-09-11T05:05:55.590Z,20.25
2022-09-11T05:06:58.982Z,22.75
2022-09-11T05:08:01.841Z,25.08
2022-09-11T05:09:06.275Z,23.52
2022-09-11T05:10:11.931Z,20.77
2022-09-11T05:11:16.346Z,27.17
2022-09-11T05:12:19.750Z,22.67
2022-09-11T05:13:21.783Z,22.50
2022-09-11T05:14:25.335Z,22.83
2022-09-11T05:15:30.098Z,22.08
2022-09-11T05:16:34.511Z,24.17
2022-09-11T05:17:36.615Z,21.92
2022-09-11T05:18:42.942Z,21.83
2022-09-11T05:19:46.183Z,28.27
2022-09-11T05:20:59.627Z,19.92
2022-09-11T05:22:04.397Z,24.52
2022-09-11T05:23:07.240Z,22.55
2022-09-11T05:24:10.375Z,26.23
2022-09-11T05:25:13.742Z,23.63
2022-09-11T05:26:19.028Z,27.52
2022-09-11T05:27:29.573Z,24.55
2022-09-11T05:28:32.167Z,24.80
2022-09-11T05:29:37.924Z,27.00
2022-09-11T05:30:49.799Z,25.67
2022-09-11T05:31:53.311Z,25.70
2022-09-11T05:32:56.120Z,24.20
2022-09-11T05:34:00.441Z,24.45
2022-09-11T05:35:02.760Z,21.98
2022-09-11T05:36:07.209Z,22.38
2022-09-11T05:37:10.844Z,22.02
2022-09-11T05:38:19.182Z,21.27
2022-09-11T05:39:21.102Z,21.27
2022-09-11T05:40:24.121Z,25.95
2022-09-11T05:41:31.506Z,26.05
2022-09-11T05:42:34.477Z,25.77
2022-09-11T05:43:37.205Z,26.02
2022-09-11T05:44:40.678Z,27.48
2022-09-11T05:45:43.072Z,24.70
2022-09-11T05:46:46.254Z,21.90
2022-09-11T05:47:52.213Z,34.58
2022-09-11T05:48:59.038Z,26.55
2022-09-11T05:50:03.043Z,25.67
2022-09-11T05:51:08.295Z,22.13
2022-09-11T05:52:11.593Z,33.95
2022-09-11T05:53:14.661Z,26.48
2022-09-11T05:54:16.679Z,27.98
2022-09-11T05:55:20.301Z,25.90
2022-09-11T05:56:23.852Z,22.90
2022-09-11T05:57:29.482Z,25.15
2022-09-11T05:58:31.934Z,29.85
2022-09-11T05:59:36.590Z,29.55
2022-09-11T06:00:38.789Z,25.05
2022-09-11T06:01:43.031Z,22.05
2022-09-11T06:02:56.234Z,24.20
2022-09-11T06:04:02.753Z,24.70
2022-09-11T06:05:06.148Z,26.13
2022-09-11T06:06:10.299Z,24.58
2022-09-11T06:07:15.587Z,23.92
2022-09-11T06:08:20.797Z,29.63
2022-09-11T06:09:23.774Z,23.27
2022-09-11T06:10:27.683Z,26.08
2022-09-11T06:11:30.964Z,25.02
2022-09-11T06:12:33.183Z,24.25
2022-09-11T06:13:39.784Z,27.17
2022-09-11T06:14:44.436Z,25.35
2022-09-11T06:15:48.782Z,22.83
2022-09-11T06:16:52.192Z,26.95
2022-09-11T06:17:54.643Z,23.60
2022-09-11T06:18:57.815Z,27.48
2022-09-11T06:20:00.977Z,23.77
2022-09-11T06:21:07.748Z,25.60
2022-09-11T06:22:21.573Z,22.90
2022-09-11T06:23:26.784Z,22.63
2022-09-11T06:24:30.232Z,27.13
2022-09-11T06:25:33.760Z,21.80
2022-09-11T06:26:36.021Z,28.08
2022-09-11T06:27:38.971Z,26.30
2022-09-11T06:28:42.019Z,25.00
2022-09-11T06:29:46.718Z,22.88
2022-09-11T06:30:49.593Z,26.63
2022-09-11T06:31:52.953Z,25.33
2022-09-11T06:32:59.475Z,31.15
2022-09-11T06:34:01.590Z,23.77
2022-09-11T06:35:05.972Z,26.08
2022-09-11T06:36:10.804Z,27.15
2022-09-11T06:37:13.898Z,25.02
2022-09-11T06:38:17.630Z,26.45
2022-09-11T06:39:22.856Z,27.40
2022-09-11T06:40:25.895Z,28.15
2022-09-11T06:41:29.603Z,25.85
2022-09-11T06:42:37.358Z,23.77
2022-09-11T06:43:40.654Z,25.60
2022-09-11T06:44:42.905Z,29.60
2022-09-11T06:45:48.581Z,30.08
2022-09-11T06:46:52.298Z,30.73
2022-09-11T06:47:56.110Z,26.75
2022-09-11T06:48:59.981Z,26.45
2022-09-11T06:50:03.543Z,25.52
2022-09-11T06:51:20.782Z,25.92
2022-09-11T06:52:28.203Z,29.20
2022-09-11T06:53:47.385Z,28.83
2022-09-11T06:54:50.585Z,26.13
2022-09-11T06:55:55.243Z,26.88
2022-09-11T06:56:57.442Z,27.08
2022-09-11T06:58:00.621Z,25.00
2022-09-11T06:59:06.106Z,24.05
2022-09-11T07:00:09.914Z,26.63
2022-09-11T07:01:18.030Z,25.00
2022-09-11T07:02:22.625Z,26.08
2022-09-11T07:03:26.336Z,23.75
2022-09-11T07:04:28.638Z,27.65
2022-09-11T07:05:32.116Z,21.20
2022-09-11T07:06:38.579Z,25.88
2022-09-11T07:07:41.663Z,27.30
2022-09-11T07:08:52.144Z,24.58
2022-09-11T07:09:54.342Z,27.45
2022-09-11T07:11:04.707Z,26.17
2022-09-11T07:12:10.324Z,24.88
2022-09-11T07:13:12.658Z,23.65
2022-09-11T07:14:21.152Z,26.30
2022-09-11T07:15:24.781Z,22.65
2022-09-11T07:16:27.929Z,27.38
2022-09-11T07:17:30.892Z,26.65
2022-09-11T07:18:36.260Z,27.88
2022-09-11T07:19:40.069Z,26.38
2022-09-11T07:20:42.978Z,27.50
2022-09-11T07:21:45.667Z,23.45
2022-09-11T07:22:49.002Z,24.00
2022-09-11T07:23:56.486Z,23.05
2022-09-11T07:25:03.636Z,27.60
2022-09-11T07:26:10.872Z,22.55
2022-09-11T07:27:14.717Z,27.65
2022-09-11T07:28:17.431Z,25.20
2022-09-11T07:29:20.364Z,27.00
2022-09-11T07:30:22.844Z,25.92
2022-09-11T07:31:31.077Z,31.30
2022-09-11T07:32:33.109Z,23.40
2022-09-11T07:33:39.411Z,27.52
2022-09-11T07:34:43.049Z,24.98
2022-09-11T07:35:47.295Z,26.40
2022-09-11T07:36:51.807Z,24.02
2022-09-11T07:37:55.552Z,28.65
2022-09-11T07:39:04.156Z,25.33
2022-09-11T07:40:26.266Z,27.10
2022-09-11T07:41:29.489Z,23.52
2022-09-11T07:42:35.320Z,25.98
2022-09-11T07:43:38.250Z,26.17
2022-09-11T07:44:41.610Z,37.08
2022-09-11T07:45:44.008Z,28.60
2022-09-11T07:46:47.231Z,25.92
2022-09-11T07:47:50.563Z,27.85
2022-09-11T07:48:53.943Z,22.33
2022-09-11T07:49:56.071Z,23.65
2022-09-11T07:51:02.400Z,22.40
2022-09-11T07:52:05.427Z,22.77
2022-09-11T07:53:20.573Z,20.63
2022-09-11T07:54:27.013Z,20.13
2022-09-11T07:55:30.227Z,20.17
2022-09-11T07:56:34.667Z,21.55
2022-09-11T07:57:38.897Z,20.52
2022-09-11T07:58:44.914Z,24.88
2022-09-11T07:59:48.714Z,18.95
2022-09-11T08:00:59.579Z,19.45
2022-09-11T08:02:02.821Z,26.13
2022-09-11T08:03:04.867Z,18.25
2022-09-11T08:04:14.237Z,22.13
2022-09-11T08:05:18.643Z,18.08
2022-09-11T08:06:22.572Z,18.40
2022-09-11T08:07:27.812Z,20.13
2022-09-11T08:08:31.069Z,20.05
2022-09-11T08:09:35.983Z,17.48
2022-09-11T08:10:40.906Z,17.77
2022-09-11T08:11:48.426Z,18.92
2022-09-11T08:12:56.889Z,17.35
2022-09-11T08:14:02.810Z,18.00
2022-09-11T08:15:05.381Z,14.27
2022-09-11T08:16:09.550Z,17.15
2022-09-11T08:17:12.881Z,18.23
2022-09-11T08:18:16.575Z,15.80
2022-09-11T08:19:20.819Z,17.92
2022-09-11T08:20:28.961Z,18.08
2022-09-11T08:21:32.347Z,21.27
2022-09-11T08:22:34.450Z,15.75
2022-09-11T08:23:40.752Z,14.77
2022-09-11T08:24:46.051Z,17.00
2022-09-11T08:25:53.996Z,18.48
2022-09-11T08:26:57.164Z,18.58
2022-09-11T08:28:02.075Z,20.98
2022-09-11T08:29:05.363Z,14.93
2022-09-11T08:30:10.076Z,19.02
2022-09-11T08:31:13.635Z,25.38
2022-09-11T08:32:16.574Z,28.88
2022-09-11T08:33:19.540Z,15.38
2022-09-11T08:34:22.709Z,15.90
2022-09-11T08:35:26.122Z,14.25
2022-09-11T08:36:30.403Z,14.05
2022-09-11T08:37:32.695Z,16.30
2022-09-11T08:38:36.200Z,16.35
2022-09-11T08:39:38.226Z,19.67
2022-09-11T08:40:45.871Z,12.63
2022-09-11T08:41:49.876Z,14.27
2022-09-11T08:42:58.586Z,18.55
2022-09-11T08:44:05.431Z,14.65
2022-09-11T08:45:14.604Z,15.68
2022-09-11T08:46:22.271Z,14.35
2022-09-11T08:47:28.522Z,18.15
2022-09-11T08:48:47.134Z,13.38
2022-09-11T08:49:58.471Z,14.07
2022-09-11T08:51:02.793Z,17.17
2022-09-11T08:52:06.297Z,19.60
2022-09-11T08:53:16.592Z,17.02
2022-09-11T08:54:27.633Z,15.68
2022-09-11T08:55:38.423Z,15.13
2022-09-11T08:56:44.058Z,13.82
2022-09-11T08:57:54.571Z,16.58
2022-09-11T08:59:14.780Z,15.48
2022-09-11T09:00:21.605Z,14.68
2022-09-11T09:01:37.262Z,13.25
2022-09-11T09:03:08.723Z,13.73
2022-09-11T09:04:28.640Z,11.75
2022-09-11T09:05:41.400Z,16.02
2022-09-11T09:06:54.363Z,12.23
2022-09-11T09:08:09.913Z,14.32
2022-09-11T09:09:20.325Z,15.50
2022-09-11T09:10:36.637Z,18.42
2022-09-11T09:11:50.357Z,28.42
2022-09-11T09:13:00.638Z,17.15
2022-09-11T09:14:26.315Z,35.20
2022-09-11T09:15:44.171Z,19.38
2022-09-11T09:16:52.182Z,22.13
2022-09-11T09:18:00.698Z,12.45
2022-09-11T09:19:10.064Z,15.52
2022-09-11T09:20:21.074Z,12.48
2022-09-11T09:21:31.382Z,13.27
2022-09-11T09:22:42.091Z,13.05
2022-09-11T09:23:49.355Z,14.95
2022-09-11T09:25:00.303Z,14.48
2022-09-11T09:26:03.368Z,12.10
2022-09-11T09:27:08.486Z,12.50
2022-09-11T09:28:20.001Z,12.27
2022-09-11T09:29:24.975Z,14.35
2022-09-11T09:30:32.259Z,14.75
2022-09-11T09:31:38.882Z,12.88
2022-09-11T09:32:47.433Z,12.45
2022-09-11T09:33:54.879Z,11.20
2022-09-11T09:35:03.522Z,13.68
2022-09-11T09:36:14.861Z,10.85
2022-09-11T09:37:22.053Z,10.50
2022-09-11T09:38:29.317Z,11.75
2022-09-11T09:39:32.431Z,13.82
2022-09-11T09:40:37.256Z,13.82
2022-09-11T09:42:03.002Z,10.85
2022-09-11T09:43:28.931Z,9.90
2022-09-11T09:44:44.560Z,12.07
2022-09-11T09:46:04.443Z,11.32
2022-09-11T09:47:12.117Z,11.95
2022-09-11T09:48:14.594Z,11.07
2022-09-11T09:49:22.201Z,13.70
2022-09-11T09:50:30.537Z,10.95
2022-09-11T09:51:35.337Z,12.27
2022-09-11T09:52:38.899Z,9.35
2022-09-11T09:53:45.335Z,13.65
2022-09-11T09:54:55.878Z,12.50
2022-09-11T09:55:59.713Z,11.00
2022-09-11T09:57:06.841Z,10.35
2022-09-11T09:58:08.756Z,9.10
2022-09-11T09:59:19.302Z,10.00
2022-09-11T10:00:21.560Z,7.68
2022-09-11T10:01:45.306Z,9.57
2022-09-11T10:02:54.083Z,11.95
2022-09-11T10:04:10.994Z,8.98
2022-09-11T10:05:25.027Z,10.70
2022-09-11T10:06:27.128Z,9.48
2022-09-11T10:07:32.433Z,8.60
2022-09-11T10:08:37.145Z,8.40
2022-09-11T10:09:46.673Z,9.43
2022-09-11T10:10:57.208Z,12.75
2022-09-11T10:12:02.954Z,8.93
2022-09-11T10:13:19.917Z,8.02
2022-09-11T10:14:49.741Z,10.57
2022-09-11T10:15:50.489Z,11.10
2022-09-11T10:16:54.146Z,7.40
2022-09-11T10:18:33.490Z,8.77
2022-09-11T10:19:41.417Z,7.40
2022-09-11T10:20:44.497Z,8.43
2022-09-11T10:21:46.402Z,7.13
2022-09-11T10:22:49.630Z,7.03
2022-09-11T10:23:56.682Z,10.13
2022-09-11T10:25:11.451Z,6.53
2022-09-11T10:26:17.358Z,11.13
2022-09-11T10:27:22.076Z,7.35
2022-09-11T10:28:32.932Z,7.40
2022-09-11T10:29:35.175Z,7.82
2022-09-11T10:30:40.773Z,9.02
2022-09-11T10:31:49.811Z,8.77
2022-09-11T10:32:52.892Z,6.65
2022-09-11T10:33:58.821Z,8.40
2022-09-11T10:35:02.382Z,6.90
2022-09-11T10:36:09.156Z,8.15
2022-09-11T10:37:23.828Z,7.13
2022-09-11T10:38:31.593Z,8.13
2022-09-11T10:39:36.979Z,6.97
2022-09-11T10:40:41.254Z,10.10
2022-09-11T10:41:49.815Z,11.02
2022-09-11T10:42:52.416Z,7.45
2022-09-11T10:44:00.167Z,9.90
2022-09-11T10:45:10.948Z,6.30
2022-09-11T10:46:30.063Z,8.52
2022-09-11T10:47:33.162Z,8.38
2022-09-11T10:48:36.832Z,8.13
2022-09-11T10:49:42.446Z,7.57
2022-09-11T10:50:44.986Z,7.57
2022-09-11T10:52:03.103Z,8.25
2022-09-11T10:53:17.796Z,6.03
2022-09-11T10:54:30.104Z,6.03
2022-09-11T10:55:36.489Z,7.45
2022-09-11T10:56:46.656Z,6.45
2022-09-11T10:57:53.491Z,7.40
2022-09-11T10:59:00.542Z,7.22
2022-09-11T11:00:08.521Z,6.25
2022-09-11T11:01:10.747Z,5.70
2022-09-11T11:02:28.545Z,6.53
2022-09-11T11:03:30.761Z,5.75
2022-09-11T11:04:34.211Z,5.03
2022-09-11T11:05:47.886Z,5.30
2022-09-11T11:07:00.800Z,5.65
2022-09-11T11:08:23.893Z,7.05
2022-09-11T11:09:42.619Z,6.10
2022-09-11T11:11:01.482Z,8.98
2022-09-11T11:12:18.759Z,5.70
2022-09-11T11:13:37.393Z,5.80
2022-09-11T11:15:10.646Z,5.80
2022-09-11T11:16:21.180Z,6.63
2022-09-11T11:17:34.140Z,6.28
2022-09-11T11:18:55.020Z,9.70
2022-09-11T11:20:11.256Z,5.95
2022-09-11T11:21:28.228Z,5.90
2022-09-11T11:22:50.210Z,6.25
2022-09-11T11:24:06.957Z,6.25
2022-09-11T11:25:16.850Z,6.82
2022-09-11T11:26:36.756Z,7.45
2022-09-11T11:27:56.938Z,6.35
2022-09-11T11:29:26.809Z,6.10
2022-09-11T11:30:33.207Z,9.07
2022-09-11T11:31:48.275Z,10.48
2022-09-11T11:33:17.312Z,8.75
2022-09-11T11:34:42.822Z,6.45
2022-09-11T11:35:57.810Z,8.48
2022-09-11T11:37:07.205Z,11.50
2022-09-11T11:38:14.276Z,9.60
2022-09-11T11:39:25.563Z,33.75
2022-09-11T11:40:32.114Z,20.35
2022-09-11T11:41:40.351Z,48.88
2022-09-11T11:42:46.746Z,43.53
2022-09-11T11:43:52.491Z,31.02
2022-09-11T11:44:58.912Z,9.40
2022-09-11T11:46:06.895Z,5.80
2022-09-11T11:47:10.839Z,8.98
2022-09-11T11:48:18.051Z,5.18
2022-09-11T11:49:28.417Z,6.68
2022-09-11T11:50:38.381Z,6.25
2022-09-11T11:51:50.484Z,5.72
2022-09-11T11:53:06.126Z,6.50
2022-09-11T11:54:17.406Z,6.13
2022-09-11T11:55:24.858Z,7.43
2022-09-11T11:56:36.050Z,7.28
2022-09-11T11:57:43.114Z,7.90
2022-09-11T11:58:52.248Z,9.20
2022-09-11T11:59:58.174Z,7.25
2022-09-11T12:01:04.209Z,5.10
2022-09-11T12:02:24.749Z,7.65
2022-09-11T12:03:33.728Z,8.05
2022-09-11T12:04:45.907Z,6.13
2022-09-11T12:05:48.886Z,6.40
2022-09-11T12:06:52.136Z,8.30
2022-09-11T12:07:55.630Z,6.35
2022-09-11T12:08:58.908Z,8.18
2022-09-11T12:10:02.685Z,7.40
2022-09-11T12:11:07.684Z,8.18
2022-09-11T12:12:10.118Z,7.20
2022-09-11T12:13:16.270Z,6.85
2022-09-11T12:14:28.693Z,7.95
2022-09-11T12:15:34.289Z,6.50
2022-09-11T12:16:37.719Z,8.52
2022-09-11T12:17:41.211Z,11.15
2022-09-11T12:19:04.244Z,7.60
2022-09-11T12:20:40.655Z,7.15
2022-09-11T12:22:12.864Z,8.20
2022-09-11T12:23:35.409Z,9.98
2022-09-11T12:24:55.117Z,8.80
2022-09-11T12:26:16.007Z,6.72
2022-09-11T12:27:53.958Z,7.03
2022-09-11T12:29:30.390Z,10.32
2022-09-11T12:30:56.150Z,6.28
2022-09-11T12:32:29.021Z,8.35
2022-09-11T12:33:54.462Z,8.13
2022-09-11T12:35:00.996Z,9.02
2022-09-11T12:36:08.468Z,9.50
2022-09-11T12:37:28.234Z,8.70
2022-09-11T12:38:38.020Z,9.10
2022-09-11T12:39:51.211Z,6.68
2022-09-11T12:40:56.377Z,7.00
2022-09-11T12:42:36.463Z,7.95
2022-09-11T12:43:49.254Z,9.07
2022-09-11T12:44:59.911Z,6.97
2022-09-11T12:46:03.071Z,6.95
2022-09-11T12:47:12.928Z,6.13
2022-09-11T12:48:17.416Z,7.30
2022-09-11T12:49:23.597Z,6.07
2022-09-11T12:50:28.325Z,9.00
2022-09-11T12:51:35.137Z,5.88
2022-09-11T12:52:50.595Z,7.00
2022-09-11T12:54:00.177Z,8.23
2022-09-11T12:55:22.691Z,6.80
2022-09-11T12:56:28.960Z,6.57
2022-09-11T12:57:35.302Z,9.43
2022-09-11T12:58:41.323Z,9.07
2022-09-11T12:59:45.998Z,5.68
2022-09-11T13:00:51.310Z,5.50
2022-09-11T13:01:54.116Z,9.55
2022-09-11T13:02:59.558Z,7.45
2022-09-11T13:04:06.829Z,5.85
2022-09-11T13:05:20.643Z,5.90
2022-09-11T13:06:23.979Z,6.65
2022-09-11T13:07:36.034Z,6.28
2022-09-11T13:08:47.020Z,6.07
2022-09-11T13:09:53.048Z,7.25
2022-09-11T13:11:39.063Z,8.07
2022-09-11T13:12:52.292Z,5.20
2022-09-11T13:13:55.846Z,5.68
2022-09-11T13:14:58.460Z,5.18
2022-09-11T13:16:18.909Z,6.03
2022-09-11T13:17:26.891Z,8.48
2022-09-11T13:18:35.462Z,10.95
2022-09-11T13:19:39.716Z,71.40
2022-09-11T13:20:44.846Z,11.70
2022-09-11T13:21:49.482Z,26.45
2022-09-11T13:22:58.278Z,64.65
2022-09-11T13:24:02.877Z,9.15
2022-09-11T13:25:08.460Z,8.23
2022-09-11T13:26:20.061Z,7.65
2022-09-11T13:27:26.873Z,7.03
2022-09-11T13:28:31.733Z,5.25
2022-09-11T13:29:37.802Z,5.50
2022-09-11T13:30:52.551Z,6.75
2022-09-11T13:31:57.679Z,4.97
2022-09-11T13:33:06.691Z,7.50
2022-09-11T13:34:16.318Z,7.40
2022-09-11T13:35:23.461Z,5.80
2022-09-11T13:36:26.617Z,8.65
2022-09-11T13:37:36.925Z,5.03
2022-09-11T13:38:42.412Z,6.72
2022-09-11T13:39:47.397Z,8.02
2022-09-11T13:40:57.184Z,6.47
2022-09-11T13:42:02.637Z,7.53
2022-09-11T13:43:05.914Z,5.28
2022-09-11T13:44:11.900Z,5.88
2022-09-11T13:45:18.650Z,4.72
2022-09-11T13:46:26.509Z,6.00
2022-09-11T13:47:31.043Z,4.90
2022-09-11T13:48:33.952Z,5.75
2022-09-11T13:49:38.953Z,5.72
2022-09-11T13:50:42.218Z,3.53
2022-09-11T13:51:46.484Z,6.72
2022-09-11T13:52:51.071Z,4.10
2022-09-11T13:53:57.347Z,4.57
2022-09-11T13:55:10.601Z,4.75
2022-09-11T13:56:21.392Z,4.38
2022-09-11T13:57:26.186Z,5.88
2022-09-11T13:58:32.652Z,3.95
2022-09-11T13:59:41.539Z,4.00
2022-09-11T14:00:45.510Z,4.00
2022-09-11T14:01:55.535Z,19.38
2022-09-11T14:03:00.341Z,47.08
2022-09-11T14:04:04.543Z,12.80
2022-09-11T14:05:14.720Z,11.60
2022-09-11T14:06:21.314Z,21.77
2022-09-11T14:07:25.237Z,8.43
2022-09-11T14:08:32.730Z,4.30
2022-09-11T14:09:35.369Z,6.35
2022-09-11T14:10:47.718Z,3.92
2022-09-11T14:11:50.159Z,3.97
2022-09-11T14:13:04.101Z,3.72
2022-09-11T14:14:08.815Z,4.55
2022-09-11T14:15:22.353Z,5.05
2022-09-11T14:16:29.074Z,3.63
2022-09-11T14:17:31.243Z,3.45
2022-09-11T14:18:40.550Z,4.18
2022-09-11T14:19:44.537Z,3.33
2022-09-11T14:20:48.023Z,4.57
2022-09-11T14:21:52.226Z,3.75
2022-09-11T14:22:56.340Z,4.53
2022-09-11T14:24:00.331Z,3.65
2022-09-11T14:25:12.317Z,8.85
2022-09-11T14:26:19.186Z,4.07
2022-09-11T14:27:42.070Z,3.25
2022-09-11T14:29:00.620Z,3.08
2022-09-11T14:30:28.223Z,3.42
2022-09-11T14:31:37.956Z,4.07
2022-09-11T14:32:40.072Z,3.47
2022-09-11T14:33:43.070Z,3.90
2022-09-11T14:34:45.157Z,3.83
2022-09-11T14:35:50.264Z,3.60